sensor_id;sensor_type;location;lat;lon;timestamp;P1;durP1;ratioP1;P2;durP2;ratioP2
32216;SDS011;67098;51.140;4.088;2023-07-30T00:00:48;12.00;;;3.58;;
32216;SDS011;67098;51.140;4.088;2023-07-30T00:03:15;17.02;;;3.55;;
32216;SDS011;67098;51.140;4.088;2023-07-30T00:05:41;15.68;;;4.00;;
32216;SDS011;67098;51.140;4.088;2023-07-30T00:08:07;13.98;;;3.33;;
32216;SDS011;67098;51.140;4.088;2023-07-30T00:10:32;18.70;;;4.30;;
32216;SDS011;67098;51.140;4.088;2023-07-30T00:13:00;20.00;;;3.42;;
32216;SDS011;67098;51.140;4.088;2023-07-30T00:15:25;14.10;;;3.08;;
32216;SDS011;67098;51.140;4.088;2023-07-30T00:17:51;16.02;;;4.07;;
32216;SDS011;67098;51.140;4.088;2023-07-30T00:20:17;17.25;;;3.50;;
32216;SDS011;67098;51.140;4.088;2023-07-30T00:22:43;22.85;;;4.43;;
32216;SDS011;67098;51.140;4.088;2023-07-30T00:25:08;18.30;;;3.40;;
32216;SDS011;67098;51.140;4.088;2023-07-30T00:27:34;12.43;;;3.45;;
32216;SDS011;67098;51.140;4.088;2023-07-30T00:30:00;17.42;;;3.83;;
32216;SDS011;67098;51.140;4.088;2023-07-30T00:32:25;16.77;;;3.63;;
32216;SDS011;67098;51.140;4.088;2023-07-30T00:34:51;16.55;;;3.72;;
32216;SDS011;67098;51.140;4.088;2023-07-30T00:37:17;19.60;;;3.42;;
32216;SDS011;67098;51.140;4.088;2023-07-30T00:39:42;17.52;;;3.58;;
32216;SDS011;67098;51.140;4.088;2023-07-30T00:42:08;15.65;;;3.75;;
32216;SDS011;67098;51.140;4.088;2023-07-30T00:44:34;20.77;;;3.90;;
32216;SDS011;67098;51.140;4.088;2023-07-30T00:47:00;16.20;;;3.33;;
32216;SDS011;67098;51.140;4.088;2023-07-30T00:49:26;16.27;;;4.22;;
32216;SDS011;67098;51.140;4.088;2023-07-30T00:51:52;20.77;;;3.47;;
32216;SDS011;67098;51.140;4.088;2023-07-30T00:54:21;18.23;;;3.28;;
32216;SDS011;67098;51.140;4.088;2023-07-30T00:56:50;16.48;;;4.03;;
32216;SDS011;67098;51.140;4.088;2023-07-30T00:59:17;16.17;;;3.60;;
32216;SDS011;67098;51.140;4.088;2023-07-30T01:01:47;26.17;;;4.68;;
32216;SDS011;67098;51.140;4.088;2023-07-30T01:04:15;20.38;;;3.75;;
32216;SDS011;67098;51.140;4.088;2023-07-30T01:06:41;20.10;;;3.80;;
32216;SDS011;67098;51.140;4.088;2023-07-30T01:09:07;16.80;;;3.58;;
32216;SDS011;67098;51.140;4.088;2023-07-30T01:11:33;21.35;;;3.95;;
32216;SDS011;67098;51.140;4.088;2023-07-30T01:14:00;15.55;;;3.45;;
32216;SDS011;67098;51.140;4.088;2023-07-30T01:16:26;17.65;;;3.40;;
32216;SDS011;67098;51.140;4.088;2023-07-30T01:18:52;23.05;;;4.07;;
32216;SDS011;67098;51.140;4.088;2023-07-30T01:21:17;21.08;;;3.38;;
32216;SDS011;67098;51.140;4.088;2023-07-30T01:23:43;20.80;;;4.00;;
32216;SDS011;67098;51.140;4.088;2023-07-30T01:26:10;24.08;;;3.97;;
32216;SDS011;67098;51.140;4.088;2023-07-30T01:28:39;22.35;;;3.92;;
32216;SDS011;67098;51.140;4.088;2023-07-30T01:31:12;23.50;;;3.75;;
32216;SDS011;67098;51.140;4.088;2023-07-30T01:33:40;22.67;;;4.70;;
32216;SDS011;67098;51.140;4.088;2023-07-30T01:36:08;20.20;;;3.72;;
32216;SDS011;67098;51.140;4.088;2023-07-30T01:38:40;22.10;;;4.38;;
32216;SDS011;67098;51.140;4.088;2023-07-30T01:41:07;20.50;;;3.85;;
32216;SDS011;67098;51.140;4.088;2023-07-30T01:43:33;24.58;;;3.65;;
32216;SDS011;67098;51.140;4.088;2023-07-30T01:45:59;28.95;;;3.90;;
32216;SDS011;67098;51.140;4.088;2023-07-30T01:48:24;20.08;;;3.25;;
32216;SDS011;67098;51.140;4.088;2023-07-30T01:50:50;28.30;;;4.15;;
32216;SDS011;67098;51.140;4.088;2023-07-30T01:53:16;17.13;;;3.60;;
32216;SDS011;67098;51.140;4.088;2023-07-30T01:55:42;17.30;;;3.70;;
32216;SDS011;67098;51.140;4.088;2023-07-30T01:58:09;24.73;;;3.63;;
32216;SDS011;67098;51.140;4.088;2023-07-30T02:00:35;25.27;;;4.22;;
32216;SDS011;67098;51.140;4.088;2023-07-30T02:03:01;18.10;;;3.55;;
32216;SDS011;67098;51.140;4.088;2023-07-30T02:05:26;21.45;;;3.67;;
32216;SDS011;67098;51.140;4.088;2023-07-30T02:07:53;17.60;;;3.30;;
32216;SDS011;67098;51.140;4.088;2023-07-30T02:10:19;21.92;;;4.43;;
32216;SDS011;67098;51.140;4.088;2023-07-30T02:12:44;18.80;;;3.42;;
32216;SDS011;67098;51.140;4.088;2023-07-30T02:15:10;25.90;;;4.50;;
32216;SDS011;67098;51.140;4.088;2023-07-30T02:17:36;25.23;;;3.95;;
32216;SDS011;67098;51.140;4.088;2023-07-30T02:20:02;16.60;;;3.33;;
32216;SDS011;67098;51.140;4.088;2023-07-30T02:22:28;24.20;;;3.55;;
32216;SDS011;67098;51.140;4.088;2023-07-30T02:24:54;24.80;;;3.65;;
32216;SDS011;67098;51.140;4.088;2023-07-30T02:27:22;20.85;;;4.22;;
32216;SDS011;67098;51.140;4.088;2023-07-30T02:29:48;17.55;;;3.47;;
32216;SDS011;67098;51.140;4.088;2023-07-30T02:32:13;27.23;;;4.32;;
32216;SDS011;67098;51.140;4.088;2023-07-30T02:34:39;27.65;;;4.72;;
32216;SDS011;67098;51.140;4.088;2023-07-30T02:37:05;28.00;;;3.80;;
32216;SDS011;67098;51.140;4.088;2023-07-30T02:39:31;23.27;;;3.70;;
32216;SDS011;67098;51.140;4.088;2023-07-30T02:41:56;30.25;;;4.03;;
32216;SDS011;67098;51.140;4.088;2023-07-30T02:44:22;21.05;;;3.55;;
32216;SDS011;67098;51.140;4.088;2023-07-30T02:46:48;27.67;;;3.92;;
32216;SDS011;67098;51.140;4.088;2023-07-30T02:49:14;22.73;;;4.40;;
32216;SDS011;67098;51.140;4.088;2023-07-30T02:51:40;26.90;;;4.03;;
32216;SDS011;67098;51.140;4.088;2023-07-30T02:54:06;24.08;;;3.58;;
32216;SDS011;67098;51.140;4.088;2023-07-30T02:56:32;24.98;;;4.30;;
32216;SDS011;67098;51.140;4.088;2023-07-30T02:58:58;20.42;;;3.50;;
32216;SDS011;67098;51.140;4.088;2023-07-30T03:01:24;23.30;;;3.78;;
32216;SDS011;67098;51.140;4.088;2023-07-30T03:03:51;25.90;;;4.63;;
32216;SDS011;67098;51.140;4.088;2023-07-30T03:06:17;22.67;;;3.45;;
32216;SDS011;67098;51.140;4.088;2023-07-30T03:08:43;18.75;;;3.58;;
32216;SDS011;67098;51.140;4.088;2023-07-30T03:11:09;25.83;;;3.72;;
32216;SDS011;67098;51.140;4.088;2023-07-30T03:13:35;24.25;;;3.72;;
32216;SDS011;67098;51.140;4.088;2023-07-30T03:16:00;25.85;;;3.97;;
32216;SDS011;67098;51.140;4.088;2023-07-30T03:18:26;21.70;;;3.60;;
32216;SDS011;67098;51.140;4.088;2023-07-30T03:20:57;27.67;;;4.15;;
32216;SDS011;67098;51.140;4.088;2023-07-30T03:23:24;23.20;;;3.95;;
32216;SDS011;67098;51.140;4.088;2023-07-30T03:25:50;23.88;;;3.25;;
32216;SDS011;67098;51.140;4.088;2023-07-30T03:28:16;30.20;;;4.05;;
32216;SDS011;67098;51.140;4.088;2023-07-30T03:30:41;24.30;;;3.53;;
32216;SDS011;67098;51.140;4.088;2023-07-30T03:33:07;29.88;;;4.30;;
32216;SDS011;67098;51.140;4.088;2023-07-30T03:35:34;23.60;;;3.78;;
32216;SDS011;67098;51.140;4.088;2023-07-30T03:37:59;21.10;;;3.72;;
32216;SDS011;67098;51.140;4.088;2023-07-30T03:40:25;22.05;;;4.10;;
32216;SDS011;67098;51.140;4.088;2023-07-30T03:42:52;29.00;;;4.15;;
32216;SDS011;67098;51.140;4.088;2023-07-30T03:45:18;31.15;;;4.53;;
32216;SDS011;67098;51.140;4.088;2023-07-30T03:47:44;26.50;;;4.00;;
32216;SDS011;67098;51.140;4.088;2023-07-30T03:50:10;17.33;;;3.55;;
32216;SDS011;67098;51.140;4.088;2023-07-30T03:52:36;27.88;;;4.50;;
32216;SDS011;67098;51.140;4.088;2023-07-30T03:55:01;24.63;;;3.92;;
32216;SDS011;67098;51.140;4.088;2023-07-30T03:57:27;26.17;;;4.15;;
32216;SDS011;67098;51.140;4.088;2023-07-30T03:59:53;20.90;;;4.25;;
32216;SDS011;67098;51.140;4.088;2023-07-30T04:02:19;27.00;;;3.95;;
32216;SDS011;67098;51.140;4.088;2023-07-30T04:04:45;23.35;;;3.35;;
32216;SDS011;67098;51.140;4.088;2023-07-30T04:07:13;26.80;;;3.90;;
32216;SDS011;67098;51.140;4.088;2023-07-30T04:09:39;23.25;;;3.80;;
32216;SDS011;67098;51.140;4.088;2023-07-30T04:12:05;25.08;;;4.00;;
32216;SDS011;67098;51.140;4.088;2023-07-30T04:14:31;24.30;;;4.05;;
32216;SDS011;67098;51.140;4.088;2023-07-30T04:16:56;26.13;;;4.28;;
32216;SDS011;67098;51.140;4.088;2023-07-30T04:19:22;23.17;;;3.38;;
32216;SDS011;67098;51.140;4.088;2023-07-30T04:21:48;23.25;;;3.90;;
32216;SDS011;67098;51.140;4.088;2023-07-30T04:24:14;21.05;;;3.47;;
32216;SDS011;67098;51.140;4.088;2023-07-30T04:26:39;27.60;;;3.70;;
32216;SDS011;67098;51.140;4.088;2023-07-30T04:29:05;29.38;;;3.90;;
32216;SDS011;67098;51.140;4.088;2023-07-30T04:31:31;33.28;;;4.13;;
32216;SDS011;67098;51.140;4.088;2023-07-30T04:33:58;26.23;;;4.22;;
32216;SDS011;67098;51.140;4.088;2023-07-30T04:36:24;35.55;;;4.55;;
32216;SDS011;67098;51.140;4.088;2023-07-30T04:38:49;37.33;;;5.03;;
32216;SDS011;67098;51.140;4.088;2023-07-30T04:41:15;23.48;;;3.65;;
32216;SDS011;67098;51.140;4.088;2023-07-30T04:43:42;24.25;;;3.70;;
32216;SDS011;67098;51.140;4.088;2023-07-30T04:46:08;29.38;;;4.03;;
32216;SDS011;67098;51.140;4.088;2023-07-30T04:48:33;31.23;;;4.05;;
32216;SDS011;67098;51.140;4.088;2023-07-30T04:50:59;23.45;;;3.55;;
32216;SDS011;67098;51.140;4.088;2023-07-30T04:53:25;21.23;;;3.70;;
32216;SDS011;67098;51.140;4.088;2023-07-30T04:55:57;33.95;;;4.43;;
32216;SDS011;67098;51.140;4.088;2023-07-30T04:58:24;22.55;;;3.65;;
32216;SDS011;67098;51.140;4.088;2023-07-30T05:00:49;24.08;;;4.22;;
32216;SDS011;67098;51.140;4.088;2023-07-30T05:03:15;22.88;;;4.40;;
32216;SDS011;67098;51.140;4.088;2023-07-30T05:05:41;24.95;;;4.47;;
32216;SDS011;67098;51.140;4.088;2023-07-30T05:08:07;26.08;;;4.30;;
32216;SDS011;67098;51.140;4.088;2023-07-30T05:10:33;21.02;;;3.65;;
32216;SDS011;67098;51.140;4.088;2023-07-30T05:12:59;26.25;;;3.90;;
32216;SDS011;67098;51.140;4.088;2023-07-30T05:15:25;36.15;;;4.38;;
32216;SDS011;67098;51.140;4.088;2023-07-30T05:17:51;23.13;;;4.07;;
32216;SDS011;67098;51.140;4.088;2023-07-30T05:20:17;29.80;;;4.00;;
32216;SDS011;67098;51.140;4.088;2023-07-30T05:22:42;26.02;;;4.60;;
32216;SDS011;67098;51.140;4.088;2023-07-30T05:25:08;20.20;;;3.85;;
32216;SDS011;67098;51.140;4.088;2023-07-30T05:27:35;30.27;;;4.60;;
32216;SDS011;67098;51.140;4.088;2023-07-30T05:30:01;26.70;;;4.60;;
32216;SDS011;67098;51.140;4.088;2023-07-30T05:32:27;32.38;;;4.18;;
32216;SDS011;67098;51.140;4.088;2023-07-30T05:34:52;20.55;;;3.63;;
32216;SDS011;67098;51.140;4.088;2023-07-30T05:37:18;27.88;;;4.45;;
32216;SDS011;67098;51.140;4.088;2023-07-30T05:39:44;32.40;;;4.28;;
32216;SDS011;67098;51.140;4.088;2023-07-30T05:42:09;25.65;;;4.53;;
32216;SDS011;67098;51.140;4.088;2023-07-30T05:44:35;36.33;;;4.45;;
32216;SDS011;67098;51.140;4.088;2023-07-30T05:47:01;28.27;;;4.22;;
32216;SDS011;67098;51.140;4.088;2023-07-30T05:49:27;29.42;;;4.40;;
32216;SDS011;67098;51.140;4.088;2023-07-30T05:51:52;26.05;;;3.60;;
32216;SDS011;67098;51.140;4.088;2023-07-30T05:54:18;26.27;;;4.32;;
32216;SDS011;67098;51.140;4.088;2023-07-30T05:56:44;33.53;;;4.70;;
32216;SDS011;67098;51.140;4.088;2023-07-30T05:59:10;25.80;;;4.32;;
32216;SDS011;67098;51.140;4.088;2023-07-30T06:01:35;23.02;;;3.88;;
32216;SDS011;67098;51.140;4.088;2023-07-30T06:04:01;24.60;;;4.72;;
32216;SDS011;67098;51.140;4.088;2023-07-30T06:06:27;26.67;;;4.00;;
32216;SDS011;67098;51.140;4.088;2023-07-30T06:08:53;23.45;;;4.35;;
32216;SDS011;67098;51.140;4.088;2023-07-30T06:11:19;32.13;;;4.57;;
32216;SDS011;67098;51.140;4.088;2023-07-30T06:13:46;25.88;;;4.65;;
32216;SDS011;67098;51.140;4.088;2023-07-30T06:16:11;27.30;;;4.32;;
32216;SDS011;67098;51.140;4.088;2023-07-30T06:18:37;28.98;;;4.70;;
32216;SDS011;67098;51.140;4.088;2023-07-30T06:21:03;30.67;;;4.20;;
32216;SDS011;67098;51.140;4.088;2023-07-30T06:23:29;29.52;;;4.10;;
32216;SDS011;67098;51.140;4.088;2023-07-30T06:25:55;27.20;;;4.50;;
32216;SDS011;67098;51.140;4.088;2023-07-30T06:28:21;31.98;;;4.63;;
32216;SDS011;67098;51.140;4.088;2023-07-30T06:30:46;26.02;;;4.53;;
32216;SDS011;67098;51.140;4.088;2023-07-30T06:33:12;25.63;;;4.28;;
32216;SDS011;67098;51.140;4.088;2023-07-30T06:35:38;30.65;;;4.57;;
32216;SDS011;67098;51.140;4.088;2023-07-30T06:38:05;28.10;;;4.75;;
32216;SDS011;67098;51.140;4.088;2023-07-30T06:40:33;25.80;;;4.38;;
32216;SDS011;67098;51.140;4.088;2023-07-30T06:42:58;28.27;;;4.63;;
32216;SDS011;67098;51.140;4.088;2023-07-30T06:45:24;30.35;;;5.35;;
32216;SDS011;67098;51.140;4.088;2023-07-30T06:47:50;30.77;;;4.90;;
32216;SDS011;67098;51.140;4.088;2023-07-30T06:50:16;26.63;;;4.55;;
32216;SDS011;67098;51.140;4.088;2023-07-30T06:52:41;25.88;;;3.97;;
32216;SDS011;67098;51.140;4.088;2023-07-30T06:55:07;22.02;;;3.80;;
32216;SDS011;67098;51.140;4.088;2023-07-30T06:57:33;19.92;;;4.50;;
32216;SDS011;67098;51.140;4.088;2023-07-30T06:59:59;29.10;;;4.88;;
32216;SDS011;67098;51.140;4.088;2023-07-30T07:02:25;22.33;;;4.18;;
32216;SDS011;67098;51.140;4.088;2023-07-30T07:04:51;28.58;;;5.22;;
32216;SDS011;67098;51.140;4.088;2023-07-30T07:07:17;32.83;;;5.43;;
32216;SDS011;67098;51.140;4.088;2023-07-30T07:09:42;25.77;;;4.80;;
32216;SDS011;67098;51.140;4.088;2023-07-30T07:12:08;27.45;;;4.85;;
32216;SDS011;67098;51.140;4.088;2023-07-30T07:14:34;28.85;;;4.93;;
32216;SDS011;67098;51.140;4.088;2023-07-30T07:17:00;25.90;;;4.20;;
32216;SDS011;67098;51.140;4.088;2023-07-30T07:19:26;23.90;;;4.22;;
32216;SDS011;67098;51.140;4.088;2023-07-30T07:21:52;29.45;;;4.68;;
32216;SDS011;67098;51.140;4.088;2023-07-30T07:24:18;27.60;;;4.78;;
32216;SDS011;67098;51.140;4.088;2023-07-30T07:26:44;27.30;;;4.80;;
32216;SDS011;67098;51.140;4.088;2023-07-30T07:29:10;24.23;;;4.13;;
32216;SDS011;67098;51.140;4.088;2023-07-30T07:31:35;27.02;;;4.28;;
32216;SDS011;67098;51.140;4.088;2023-07-30T07:34:01;24.52;;;4.20;;
32216;SDS011;67098;51.140;4.088;2023-07-30T07:36:27;23.33;;;4.60;;
32216;SDS011;67098;51.140;4.088;2023-07-30T07:38:53;24.45;;;4.68;;
32216;SDS011;67098;51.140;4.088;2023-07-30T07:41:18;26.10;;;4.10;;
32216;SDS011;67098;51.140;4.088;2023-07-30T07:43:45;24.67;;;4.38;;
32216;SDS011;67098;51.140;4.088;2023-07-30T07:46:12;29.98;;;4.78;;
32216;SDS011;67098;51.140;4.088;2023-07-30T07:48:40;22.38;;;4.38;;
32216;SDS011;67098;51.140;4.088;2023-07-30T07:51:08;23.42;;;4.35;;
32216;SDS011;67098;51.140;4.088;2023-07-30T07:53:34;24.38;;;4.38;;
32216;SDS011;67098;51.140;4.088;2023-07-30T07:56:00;19.67;;;3.90;;
32216;SDS011;67098;51.140;4.088;2023-07-30T07:58:26;22.80;;;4.43;;
32216;SDS011;67098;51.140;4.088;2023-07-30T08:00:56;25.55;;;3.83;;
32216;SDS011;67098;51.140;4.088;2023-07-30T08:03:22;22.80;;;4.22;;
32216;SDS011;67098;51.140;4.088;2023-07-30T08:05:49;20.08;;;4.05;;
32216;SDS011;67098;51.140;4.088;2023-07-30T08:08:15;22.15;;;3.85;;
32216;SDS011;67098;51.140;4.088;2023-07-30T08:10:41;18.40;;;3.53;;
32216;SDS011;67098;51.140;4.088;2023-07-30T08:13:11;23.08;;;4.38;;
32216;SDS011;67098;51.140;4.088;2023-07-30T08:15:37;22.52;;;3.75;;
32216;SDS011;67098;51.140;4.088;2023-07-30T08:18:03;18.90;;;3.13;;
32216;SDS011;67098;51.140;4.088;2023-07-30T08:20:29;15.75;;;2.88;;
32216;SDS011;67098;51.140;4.088;2023-07-30T08:22:54;18.85;;;3.47;;
32216;SDS011;67098;51.140;4.088;2023-07-30T08:25:21;16.67;;;2.65;;
32216;SDS011;67098;51.140;4.088;2023-07-30T08:27:47;15.10;;;2.88;;
32216;SDS011;67098;51.140;4.088;2023-07-30T08:30:17;15.70;;;2.50;;
32216;SDS011;67098;51.140;4.088;2023-07-30T08:32:43;12.18;;;2.40;;
32216;SDS011;67098;51.140;4.088;2023-07-30T08:35:09;10.13;;;2.10;;
32216;SDS011;67098;51.140;4.088;2023-07-30T08:37:36;14.80;;;2.30;;
32216;SDS011;67098;51.140;4.088;2023-07-30T08:40:02;14.90;;;2.15;;
32216;SDS011;67098;51.140;4.088;2023-07-30T08:42:29;11.25;;;2.60;;
32216;SDS011;67098;51.140;4.088;2023-07-30T08:44:55;12.15;;;2.50;;
32216;SDS011;67098;51.140;4.088;2023-07-30T08:47:21;11.73;;;2.50;;
32216;SDS011;67098;51.140;4.088;2023-07-30T08:49:48;12.48;;;2.20;;
32216;SDS011;67098;51.140;4.088;2023-07-30T08:52:15;10.02;;;2.38;;
32216;SDS011;67098;51.140;4.088;2023-07-30T08:54:42;11.13;;;1.98;;
32216;SDS011;67098;51.140;4.088;2023-07-30T08:57:10;7.93;;;2.00;;
32216;SDS011;67098;51.140;4.088;2023-07-30T08:59:42;10.85;;;1.85;;
32216;SDS011;67098;51.140;4.088;2023-07-30T09:02:18;9.27;;;2.10;;
32216;SDS011;67098;51.140;4.088;2023-07-30T09:04:56;10.23;;;2.13;;
32216;SDS011;67098;51.140;4.088;2023-07-30T09:07:27;9.95;;;2.05;;
32216;SDS011;67098;51.140;4.088;2023-07-30T09:09:53;8.98;;;1.55;;
32216;SDS011;67098;51.140;4.088;2023-07-30T09:12:19;11.30;;;2.20;;
32216;SDS011;67098;51.140;4.088;2023-07-30T09:14:46;7.82;;;1.80;;
32216;SDS011;67098;51.140;4.088;2023-07-30T09:17:16;10.30;;;1.90;;
32216;SDS011;67098;51.140;4.088;2023-07-30T09:19:44;8.50;;;1.85;;
32216;SDS011;67098;51.140;4.088;2023-07-30T09:22:12;11.32;;;2.13;;
32216;SDS011;67098;51.140;4.088;2023-07-30T09:24:45;7.55;;;1.55;;
32216;SDS011;67098;51.140;4.088;2023-07-30T09:27:11;10.70;;;1.50;;
32216;SDS011;67098;51.140;4.088;2023-07-30T09:29:37;11.70;;;1.60;;
32216;SDS011;67098;51.140;4.088;2023-07-30T09:32:03;7.10;;;1.80;;
32216;SDS011;67098;51.140;4.088;2023-07-30T09:34:32;7.93;;;1.83;;
32216;SDS011;67098;51.140;4.088;2023-07-30T09:36:58;9.85;;;1.90;;
32216;SDS011;67098;51.140;4.088;2023-07-30T09:39:24;9.80;;;2.10;;
32216;SDS011;67098;51.140;4.088;2023-07-30T09:41:53;9.07;;;1.92;;
32216;SDS011;67098;51.140;4.088;2023-07-30T09:44:26;12.70;;;2.20;;
32216;SDS011;67098;51.140;4.088;2023-07-30T09:46:53;13.10;;;2.55;;
32216;SDS011;67098;51.140;4.088;2023-07-30T09:49:20;9.13;;;1.77;;
32216;SDS011;67098;51.140;4.088;2023-07-30T09:51:45;7.88;;;1.90;;
32216;SDS011;67098;51.140;4.088;2023-07-30T09:54:14;8.90;;;2.05;;
32216;SDS011;67098;51.140;4.088;2023-07-30T09:56:40;10.57;;;1.90;;
32216;SDS011;67098;51.140;4.088;2023-07-30T09:59:07;8.05;;;1.70;;
32216;SDS011;67098;51.140;4.088;2023-07-30T10:01:36;9.02;;;2.00;;
32216;SDS011;67098;51.140;4.088;2023-07-30T10:04:10;6.63;;;2.08;;
32216;SDS011;67098;51.140;4.088;2023-07-30T10:06:39;8.65;;;1.80;;
32216;SDS011;67098;51.140;4.088;2023-07-30T10:09:08;8.85;;;1.73;;
32216;SDS011;67098;51.140;4.088;2023-07-30T10:11:36;11.60;;;2.05;;
32216;SDS011;67098;51.140;4.088;2023-07-30T10:14:04;8.68;;;2.17;;
32216;SDS011;67098;51.140;4.088;2023-07-30T10:16:31;9.52;;;2.20;;
32216;SDS011;67098;51.140;4.088;2023-07-30T10:18:57;10.27;;;1.80;;
32216;SDS011;67098;51.140;4.088;2023-07-30T10:21:25;8.07;;;1.83;;
32216;SDS011;67098;51.140;4.088;2023-07-30T10:24:04;7.93;;;1.65;;
32216;SDS011;67098;51.140;4.088;2023-07-30T10:26:31;10.45;;;1.90;;
32216;SDS011;67098;51.140;4.088;2023-07-30T10:29:17;8.48;;;1.55;;
32216;SDS011;67098;51.140;4.088;2023-07-30T10:31:53;8.18;;;1.48;;
32216;SDS011;67098;51.140;4.088;2023-07-30T10:34:21;8.05;;;1.73;;
32216;SDS011;67098;51.140;4.088;2023-07-30T10:36:52;8.35;;;1.50;;
32216;SDS011;67098;51.140;4.088;2023-07-30T10:39:20;9.52;;;2.03;;
32216;SDS011;67098;51.140;4.088;2023-07-30T10:41:53;8.52;;;1.60;;
32216;SDS011;67098;51.140;4.088;2023-07-30T10:46:53;10.80;;;2.08;;
32216;SDS011;67098;51.140;4.088;2023-07-30T10:49:22;8.45;;;1.80;;
32216;SDS011;67098;51.140;4.088;2023-07-30T10:51:53;9.00;;;1.70;;
32216;SDS011;67098;51.140;4.088;2023-07-30T10:54:20;14.55;;;1.83;;
32216;SDS011;67098;51.140;4.088;2023-07-30T10:56:46;11.10;;;1.95;;
32216;SDS011;67098;51.140;4.088;2023-07-30T10:59:12;6.50;;;1.48;;
32216;SDS011;67098;51.140;4.088;2023-07-30T11:01:39;9.30;;;1.50;;
32216;SDS011;67098;51.140;4.088;2023-07-30T11:04:10;7.55;;;1.52;;
32216;SDS011;67098;51.140;4.088;2023-07-30T11:06:37;7.85;;;1.38;;
32216;SDS011;67098;51.140;4.088;2023-07-30T11:09:05;4.80;;;1.30;;
32216;SDS011;67098;51.140;4.088;2023-07-30T11:11:43;4.60;;;1.10;;
32216;SDS011;67098;51.140;4.088;2023-07-30T11:14:14;6.32;;;1.60;;
32216;SDS011;67098;51.140;4.088;2023-07-30T11:16:50;9.50;;;1.90;;
32216;SDS011;67098;51.140;4.088;2023-07-30T11:19:17;7.68;;;1.17;;
32216;SDS011;67098;51.140;4.088;2023-07-30T11:21:47;8.35;;;1.30;;
32216;SDS011;67098;51.140;4.088;2023-07-30T11:24:14;6.47;;;1.38;;
32216;SDS011;67098;51.140;4.088;2023-07-30T11:26:41;11.88;;;1.50;;
32216;SDS011;67098;51.140;4.088;2023-07-30T11:29:41;8.05;;;1.60;;
32216;SDS011;67098;51.140;4.088;2023-07-30T11:31:59;10.00;;;1.85;;
32216;SDS011;67098;51.140;4.088;2023-07-30T11:34:28;11.15;;;2.05;;
32216;SDS011;67098;51.140;4.088;2023-07-30T11:36:55;8.55;;;1.77;;
32216;SDS011;67098;51.140;4.088;2023-07-30T11:39:23;9.60;;;1.77;;
32216;SDS011;67098;51.140;4.088;2023-07-30T11:41:50;8.27;;;1.80;;
32216;SDS011;67098;51.140;4.088;2023-07-30T11:44:34;8.43;;;1.55;;
32216;SDS011;67098;51.140;4.088;2023-07-30T11:47:06;14.23;;;1.95;;
32216;SDS011;67098;51.140;4.088;2023-07-30T11:49:32;7.55;;;2.00;;
32216;SDS011;67098;51.140;4.088;2023-07-30T11:54:35;8.40;;;1.80;;
32216;SDS011;67098;51.140;4.088;2023-07-30T11:57:02;7.78;;;1.80;;
32216;SDS011;67098;51.140;4.088;2023-07-30T11:59:28;8.27;;;1.98;;
32216;SDS011;67098;51.140;4.088;2023-07-30T12:01:56;9.25;;;2.42;;
32216;SDS011;67098;51.140;4.088;2023-07-30T12:04:23;11.32;;;2.13;;
32216;SDS011;67098;51.140;4.088;2023-07-30T12:06:50;8.50;;;2.00;;
32216;SDS011;67098;51.140;4.088;2023-07-30T12:09:22;9.77;;;2.03;;
32216;SDS011;67098;51.140;4.088;2023-07-30T12:14:23;10.00;;;2.03;;
32216;SDS011;67098;51.140;4.088;2023-07-30T12:16:57;8.88;;;2.30;;
32216;SDS011;67098;51.140;4.088;2023-07-30T12:19:23;8.43;;;1.75;;
32216;SDS011;67098;51.140;4.088;2023-07-30T12:21:49;10.57;;;1.60;;
32216;SDS011;67098;51.140;4.088;2023-07-30T12:24:14;6.90;;;1.58;;
32216;SDS011;67098;51.140;4.088;2023-07-30T12:26:40;8.13;;;1.40;;
32216;SDS011;67098;51.140;4.088;2023-07-30T12:29:06;9.23;;;1.80;;
32216;SDS011;67098;51.140;4.088;2023-07-30T12:31:32;6.35;;;1.50;;
32216;SDS011;67098;51.140;4.088;2023-07-30T12:33:57;9.68;;;1.77;;
32216;SDS011;67098;51.140;4.088;2023-07-30T12:36:23;7.15;;;1.50;;
32216;SDS011;67098;51.140;4.088;2023-07-30T12:38:49;5.78;;;1.48;;
32216;SDS011;67098;51.140;4.088;2023-07-30T12:41:17;8.50;;;1.40;;
32216;SDS011;67098;51.140;4.088;2023-07-30T12:43:44;4.53;;;1.05;;
32216;SDS011;67098;51.140;4.088;2023-07-30T12:46:11;7.97;;;1.70;;
32216;SDS011;67098;51.140;4.088;2023-07-30T12:48:36;9.35;;;2.15;;
32216;SDS011;67098;51.140;4.088;2023-07-30T12:51:02;8.95;;;2.33;;
32216;SDS011;67098;51.140;4.088;2023-07-30T12:53:29;7.97;;;1.58;;
32216;SDS011;67098;51.140;4.088;2023-07-30T12:55:57;7.32;;;1.35;;
32216;SDS011;67098;51.140;4.088;2023-07-30T12:58:23;6.95;;;1.90;;
32216;SDS011;67098;51.140;4.088;2023-07-30T13:00:48;3.63;;;1.67;;
32216;SDS011;67098;51.140;4.088;2023-07-30T13:03:14;8.85;;;1.45;;
32216;SDS011;67098;51.140;4.088;2023-07-30T13:05:40;8.32;;;2.05;;
32216;SDS011;67098;51.140;4.088;2023-07-30T13:08:06;9.05;;;2.47;;
32216;SDS011;67098;51.140;4.088;2023-07-30T13:10:32;11.27;;;2.00;;
32216;SDS011;67098;51.140;4.088;2023-07-30T13:12:59;8.88;;;1.90;;
32216;SDS011;67098;51.140;4.088;2023-07-30T13:15:25;5.18;;;1.70;;
32216;SDS011;67098;51.140;4.088;2023-07-30T13:17:50;9.90;;;2.08;;
32216;SDS011;67098;51.140;4.088;2023-07-30T13:20:16;10.32;;;2.28;;
32216;SDS011;67098;51.140;4.088;2023-07-30T13:22:42;9.40;;;2.45;;
32216;SDS011;67098;51.140;4.088;2023-07-30T13:25:08;8.73;;;2.22;;
32216;SDS011;67098;51.140;4.088;2023-07-30T13:27:33;6.43;;;2.33;;
32216;SDS011;67098;51.140;4.088;2023-07-30T13:29:59;6.57;;;2.08;;
32216;SDS011;67098;51.140;4.088;2023-07-30T13:32:26;7.80;;;2.30;;
32216;SDS011;67098;51.140;4.088;2023-07-30T13:34:53;8.07;;;2.10;;
32216;SDS011;67098;51.140;4.088;2023-07-30T13:37:18;14.35;;;2.38;;
32216;SDS011;67098;51.140;4.088;2023-07-30T13:39:44;6.32;;;2.17;;
32216;SDS011;67098;51.140;4.088;2023-07-30T13:42:11;7.63;;;2.45;;
32216;SDS011;67098;51.140;4.088;2023-07-30T13:44:37;6.25;;;2.10;;
32216;SDS011;67098;51.140;4.088;2023-07-30T13:47:03;7.95;;;1.98;;
32216;SDS011;67098;51.140;4.088;2023-07-30T13:49:29;7.57;;;1.88;;
32216;SDS011;67098;51.140;4.088;2023-07-30T13:51:54;7.97;;;2.20;;
32216;SDS011;67098;51.140;4.088;2023-07-30T13:54:20;10.07;;;2.13;;
32216;SDS011;67098;51.140;4.088;2023-07-30T13:56:46;6.72;;;2.28;;
32216;SDS011;67098;51.140;4.088;2023-07-30T13:59:11;11.15;;;2.58;;
32216;SDS011;67098;51.140;4.088;2023-07-30T14:01:37;6.07;;;2.38;;
32216;SDS011;67098;51.140;4.088;2023-07-30T14:04:03;10.15;;;3.05;;
32216;SDS011;67098;51.140;4.088;2023-07-30T14:06:29;10.23;;;2.03;;
32216;SDS011;67098;51.140;4.088;2023-07-30T14:08:56;11.38;;;3.03;;
32216;SDS011;67098;51.140;4.088;2023-07-30T14:11:24;9.20;;;2.92;;
32216;SDS011;67098;51.140;4.088;2023-07-30T14:13:50;14.00;;;3.30;;
32216;SDS011;67098;51.140;4.088;2023-07-30T14:16:16;14.52;;;3.22;;
32216;SDS011;67098;51.140;4.088;2023-07-30T14:18:42;14.77;;;2.70;;
32216;SDS011;67098;51.140;4.088;2023-07-30T14:21:08;10.43;;;2.45;;
32216;SDS011;67098;51.140;4.088;2023-07-30T14:23:34;10.32;;;3.10;;
32216;SDS011;67098;51.140;4.088;2023-07-30T14:25:59;13.75;;;3.40;;
32216;SDS011;67098;51.140;4.088;2023-07-30T14:28:25;11.45;;;3.13;;
32216;SDS011;67098;51.140;4.088;2023-07-30T14:30:51;15.18;;;3.13;;
32216;SDS011;67098;51.140;4.088;2023-07-30T14:33:16;14.68;;;3.15;;
32216;SDS011;67098;51.140;4.088;2023-07-30T14:35:42;12.45;;;3.75;;
32216;SDS011;67098;51.140;4.088;2023-07-30T14:38:08;11.50;;;3.10;;
32216;SDS011;67098;51.140;4.088;2023-07-30T14:40:35;11.32;;;3.08;;
32216;SDS011;67098;51.140;4.088;2023-07-30T14:43:00;8.98;;;2.95;;